Antelope, Oregon
Current Conditions -  °F | °C
As of 2:55 AM on Monday 20 Oct 2014 (Local Time) from KS39 Reporting Station
Clear Clear  
Wind Chill: 52°   Ceiling: Unl
Heat Index: 52°   Visibility: 10mi
Dew Point: 39°   Wind: 9mph
Humidity: 62%   Direction: 180°S
Pressure: 29.8"   Gusts: NA
Location:  44.91°N, 120.72°W
Report Text: KS39 200955Z 18008KT 10SM CLR 11/04 A2980 RMK AO2 CRANE OPERATIONS 1 MILE NE OF AIRPORT OPERATING AT APP. 150 FT AGL.
Loading
Personal Weather Stations






























Interactive Weather Map
Tropical Storm Tracking
New forecast layout! Learn more

10-Day Weather Forecast

Advertisements
Track Severe Weather on mobile